createdAt,value
2023-04-17T00:01:13.477Z,10.00
2023-04-17T00:03:17.111Z,9.73
2023-04-17T00:05:23.166Z,10.13
2023-04-17T00:07:28.418Z,9.63
2023-04-17T00:09:31.020Z,10.00
2023-04-17T00:11:33.070Z,11.90
2023-04-17T00:13:35.271Z,10.27
2023-04-17T00:15:37.300Z,11.70
2023-04-17T00:17:39.355Z,11.20
2023-04-17T00:19:41.453Z,11.13
2023-04-17T00:21:43.655Z,11.33
2023-04-17T00:23:46.104Z,11.33
2023-04-17T00:25:48.255Z,11.97
2023-04-17T00:27:50.941Z,10.50
2023-04-17T00:29:52.930Z,10.03
2023-04-17T00:31:55.045Z,10.47
2023-04-17T00:33:58.832Z,11.30
2023-04-17T00:36:00.862Z,11.00
2023-04-17T00:38:02.971Z,11.10
2023-04-17T00:40:05.579Z,10.87
2023-04-17T00:42:07.618Z,9.80
2023-04-17T00:44:09.619Z,10.03
2023-04-17T00:46:13.046Z,9.70
2023-04-17T00:48:16.986Z,9.33
2023-04-17T00:50:19.182Z,8.63
2023-04-17T00:52:29.876Z,10.00
2023-04-17T00:54:32.381Z,10.23
2023-04-17T00:56:34.666Z,8.90
2023-04-17T00:58:37.580Z,10.63
2023-04-17T01:00:39.953Z,10.37
2023-04-17T01:02:42.178Z,9.50
2023-04-17T01:04:44.524Z,9.40
2023-04-17T01:06:46.647Z,9.13
2023-04-17T01:08:48.692Z,9.03
2023-04-17T01:10:50.919Z,11.17
2023-04-17T01:13:06.586Z,10.93
2023-04-17T01:15:09.990Z,11.03
2023-04-17T01:17:14.516Z,11.67
2023-04-17T01:19:17.108Z,11.10
2023-04-17T01:21:19.064Z,9.50
2023-04-17T01:23:21.256Z,10.47
2023-04-17T01:25:23.591Z,9.73
2023-04-17T01:27:25.653Z,10.10
2023-04-17T01:29:27.847Z,10.23
2023-04-17T01:31:34.411Z,10.50
2023-04-17T01:33:36.437Z,11.10
2023-04-17T01:35:38.539Z,10.43
2023-04-17T01:37:40.616Z,10.37
2023-04-17T01:39:42.641Z,10.90
2023-04-17T01:41:44.895Z,9.73
2023-04-17T01:43:47.727Z,10.60
2023-04-17T01:45:49.818Z,11.00
2023-04-17T01:47:53.865Z,11.17
2023-04-17T01:49:55.964Z,10.80
2023-04-17T01:51:57.999Z,10.53
2023-04-17T01:54:00.332Z,10.13
2023-04-17T01:56:02.584Z,11.03
2023-04-17T01:58:05.071Z,10.97
2023-04-17T02:00:07.974Z,11.47
2023-04-17T02:02:14.442Z,10.80
2023-04-17T02:04:17.088Z,10.97
2023-04-17T02:06:19.265Z,12.07
2023-04-17T02:08:21.411Z,10.97
2023-04-17T02:10:23.501Z,10.77
2023-04-17T02:12:25.650Z,12.17
2023-04-17T02:14:27.687Z,12.40
2023-04-17T02:16:32.346Z,11.80
2023-04-17T02:18:34.499Z,12.23
2023-04-17T02:20:37.616Z,12.10
2023-04-17T02:22:39.907Z,12.13
2023-04-17T02:24:41.877Z,11.50
2023-04-17T02:26:43.971Z,10.97
2023-04-17T02:28:47.954Z,11.27
2023-04-17T02:30:50.362Z,11.40
2023-04-17T02:32:54.327Z,11.30
2023-04-17T02:34:56.804Z,11.33
2023-04-17T02:36:59.158Z,12.57
2023-04-17T02:39:01.415Z,12.27
2023-04-17T02:41:04.198Z,10.67
2023-04-17T02:43:06.661Z,10.77
2023-04-17T02:45:10.985Z,11.53
2023-04-17T02:47:13.112Z,11.17
2023-04-17T02:49:15.961Z,11.70
2023-04-17T02:51:18.438Z,11.53
2023-04-17T02:53:20.638Z,12.97
2023-04-17T02:55:24.430Z,10.67
2023-04-17T02:57:26.832Z,12.47
2023-04-17T02:59:28.868Z,11.43
2023-04-17T03:01:31.000Z,11.00
2023-04-17T03:03:35.178Z,12.27
2023-04-17T03:05:40.278Z,11.60
2023-04-17T03:07:42.454Z,12.03
2023-04-17T03:09:47.426Z,11.90
2023-04-17T03:11:49.986Z,11.80
2023-04-17T03:13:52.021Z,12.47
2023-04-17T03:15:54.010Z,12.40
2023-04-17T03:17:56.424Z,13.90
2023-04-17T03:19:58.495Z,11.97
2023-04-17T03:22:01.840Z,14.13
2023-04-17T03:24:05.043Z,13.50
2023-04-17T03:26:07.527Z,12.87
2023-04-17T03:28:09.632Z,12.50
2023-04-17T03:30:11.910Z,14.73
2023-04-17T03:32:14.931Z,13.43
2023-04-17T03:34:18.702Z,14.57
2023-04-17T03:36:20.754Z,15.60
2023-04-17T03:38:22.806Z,14.57
2023-04-17T03:40:24.805Z,14.87
2023-04-17T03:42:27.584Z,16.13
2023-04-17T03:44:29.556Z,15.67
2023-04-17T03:46:31.617Z,14.67
2023-04-17T03:48:34.019Z,13.93
2023-04-17T03:50:36.236Z,14.73
2023-04-17T03:52:38.294Z,15.03
2023-04-17T03:54:40.793Z,15.37
2023-04-17T03:56:42.858Z,15.67
2023-04-17T03:58:45.840Z,14.50
2023-04-17T04:00:55.278Z,16.17
2023-04-17T04:03:00.597Z,13.83
2023-04-17T04:05:09.781Z,14.17
2023-04-17T04:07:13.232Z,15.00
2023-04-17T04:09:15.246Z,14.10
2023-04-17T04:11:17.891Z,15.20
2023-04-17T04:13:19.992Z,13.53
2023-04-17T04:15:27.758Z,14.90
2023-04-17T04:17:34.045Z,14.00
2023-04-17T04:19:36.355Z,14.60
2023-04-17T04:21:38.647Z,14.93
2023-04-17T04:23:45.586Z,15.53
2023-04-17T04:25:50.631Z,13.10
2023-04-17T04:28:01.747Z,15.97
2023-04-17T04:30:04.795Z,15.73
2023-04-17T04:32:13.653Z,15.53
2023-04-17T04:34:19.237Z,14.17
2023-04-17T04:36:22.940Z,16.73
2023-04-17T04:38:33.736Z,13.77
2023-04-17T04:40:52.319Z,15.20
2023-04-17T04:42:55.960Z,15.80
2023-04-17T04:45:04.703Z,13.60
2023-04-17T04:47:08.071Z,15.73
2023-04-17T04:49:10.596Z,15.70
2023-04-17T04:51:12.908Z,15.53
2023-04-17T04:53:15.650Z,15.90
2023-04-17T04:55:24.520Z,14.80
2023-04-17T04:57:28.179Z,16.13
2023-04-17T04:59:34.003Z,15.80
2023-04-17T05:02:02.407Z,14.67
2023-04-17T05:04:04.929Z,15.40
2023-04-17T05:06:09.499Z,13.47
2023-04-17T05:08:18.999Z,14.37
2023-04-17T05:10:30.107Z,14.10
2023-04-17T05:12:35.826Z,14.13
2023-04-17T05:14:40.851Z,15.73
2023-04-17T05:16:44.196Z,14.17
2023-04-17T05:18:48.067Z,15.87
2023-04-17T05:20:53.963Z,14.23
2023-04-17T05:22:56.855Z,14.70
2023-04-17T05:24:58.907Z,15.00
2023-04-17T05:27:02.278Z,15.97
2023-04-17T05:29:04.414Z,14.80
2023-04-17T05:31:08.749Z,15.20
2023-04-17T05:33:14.743Z,14.70
2023-04-17T05:35:22.429Z,14.70
2023-04-17T05:37:26.187Z,13.57
2023-04-17T05:39:28.253Z,13.50
2023-04-17T05:41:31.203Z,14.13
2023-04-17T05:43:33.362Z,13.80
2023-04-17T05:45:36.010Z,14.07
2023-04-17T05:47:38.359Z,13.70
2023-04-17T05:49:40.517Z,13.87
2023-04-17T05:51:42.524Z,14.37
2023-04-17T05:53:44.938Z,12.70
2023-04-17T05:55:47.023Z,14.20
2023-04-17T05:57:49.290Z,13.57
2023-04-17T05:59:51.511Z,13.80
2023-04-17T06:01:54.232Z,13.37
2023-04-17T06:03:57.813Z,14.33
2023-04-17T06:06:02.425Z,13.60
2023-04-17T06:08:06.550Z,14.53
2023-04-17T06:10:09.055Z,14.13
2023-04-17T06:12:15.992Z,13.10
2023-04-17T06:14:19.713Z,12.57
2023-04-17T06:16:22.546Z,13.50
2023-04-17T06:18:24.850Z,13.43
2023-04-17T06:20:26.892Z,12.73
2023-04-17T06:22:28.960Z,10.80
2023-04-17T06:24:31.042Z,12.00
2023-04-17T06:26:33.199Z,11.60
2023-04-17T06:28:35.380Z,11.57
2023-04-17T06:30:38.010Z,11.63
2023-04-17T06:32:43.210Z,11.07
2023-04-17T06:34:58.602Z,11.30
2023-04-17T06:37:14.884Z,11.33
2023-04-17T06:39:17.472Z,11.93
2023-04-17T06:41:19.711Z,10.80
2023-04-17T06:43:21.860Z,11.23
2023-04-17T06:45:24.155Z,10.33
2023-04-17T06:47:26.172Z,9.93
2023-04-17T06:49:28.163Z,9.93
2023-04-17T06:51:30.258Z,11.30
2023-04-17T06:53:32.408Z,11.17
2023-04-17T06:55:34.450Z,11.40
2023-04-17T06:57:36.833Z,10.70
2023-04-17T06:59:39.158Z,11.33
2023-04-17T07:01:41.847Z,10.27
2023-04-17T07:03:44.114Z,9.87
2023-04-17T07:05:46.638Z,10.40
2023-04-17T07:07:48.679Z,11.60
2023-04-17T07:09:50.704Z,11.87
2023-04-17T07:11:52.856Z,11.50
2023-04-17T07:13:55.005Z,11.77
2023-04-17T07:15:58.345Z,12.07
2023-04-17T07:18:00.522Z,11.33
2023-04-17T07:20:02.971Z,12.70
2023-04-17T07:22:05.777Z,11.50
2023-04-17T07:24:07.877Z,12.37
2023-04-17T07:26:11.362Z,12.27
2023-04-17T07:28:14.155Z,10.90
2023-04-17T07:30:16.236Z,16.20
2023-04-17T07:32:18.289Z,16.40
2023-04-17T07:34:20.412Z,13.33
2023-04-17T07:36:22.453Z,12.97
2023-04-17T07:38:24.552Z,17.03
2023-04-17T07:40:27.098Z,13.87
2023-04-17T07:42:29.447Z,13.20
2023-04-17T07:44:31.501Z,13.13
2023-04-17T07:46:33.609Z,12.53
2023-04-17T07:48:35.869Z,13.37
2023-04-17T07:50:37.792Z,12.90
2023-04-17T07:52:39.906Z,12.60
2023-04-17T07:54:41.980Z,13.47
2023-04-17T07:56:46.622Z,11.47
2023-04-17T07:58:51.955Z,13.50
2023-04-17T08:00:54.166Z,12.77
2023-04-17T08:02:56.296Z,12.40
2023-04-17T08:05:00.366Z,12.03
2023-04-17T08:07:02.644Z,11.70
2023-04-17T08:09:04.706Z,10.70
2023-04-17T08:11:06.721Z,11.83
2023-04-17T08:13:08.790Z,11.90
2023-04-17T08:15:11.322Z,12.73
2023-04-17T08:17:13.336Z,13.00
2023-04-17T08:19:15.512Z,12.13
2023-04-17T08:21:17.498Z,10.60
2023-04-17T08:23:19.546Z,11.57
2023-04-17T08:25:21.677Z,11.57
2023-04-17T08:27:25.623Z,11.60
2023-04-17T08:29:27.861Z,11.53
2023-04-17T08:31:30.604Z,11.10
2023-04-17T08:33:32.872Z,10.80
2023-04-17T08:35:35.064Z,11.20
2023-04-17T08:37:38.312Z,11.30
2023-04-17T08:39:40.604Z,10.80
2023-04-17T08:41:51.180Z,10.70
2023-04-17T08:43:54.315Z,9.60
2023-04-17T08:45:56.933Z,10.50
2023-04-17T08:47:59.415Z,10.23
2023-04-17T08:50:09.555Z,10.77
2023-04-17T08:52:12.180Z,9.43
2023-04-17T08:54:14.374Z,11.37
2023-04-17T08:56:16.558Z,10.63
2023-04-17T08:58:21.880Z,10.43
2023-04-17T09:00:28.712Z,9.47
2023-04-17T09:02:31.036Z,10.10
2023-04-17T09:04:39.241Z,13.10
2023-04-17T09:06:54.587Z,10.63
2023-04-17T09:09:01.824Z,10.20
2023-04-17T09:11:04.071Z,10.63
2023-04-17T09:13:06.955Z,10.50
2023-04-17T09:15:16.611Z,10.10
2023-04-17T09:17:20.573Z,10.63
2023-04-17T09:19:22.766Z,10.60
2023-04-17T09:21:29.091Z,11.20
2023-04-17T09:23:45.590Z,11.03
2023-04-17T09:26:05.661Z,11.10
2023-04-17T09:28:13.401Z,11.50
2023-04-17T09:30:15.750Z,11.73
2023-04-17T09:32:18.000Z,11.33
2023-04-17T09:34:20.805Z,10.60
2023-04-17T09:36:22.985Z,10.57
2023-04-17T09:38:38.193Z,10.90
2023-04-17T09:40:42.091Z,10.23
2023-04-17T09:43:01.471Z,9.83
2023-04-17T09:45:19.359Z,10.67
2023-04-17T09:47:24.370Z,10.40
2023-04-17T09:49:36.518Z,10.83
2023-04-17T09:51:38.960Z,10.93
2023-04-17T09:53:41.924Z,10.00
2023-04-17T09:55:44.738Z,10.40
2023-04-17T09:57:49.276Z,9.50
2023-04-17T09:59:51.761Z,10.07
2023-04-17T10:01:57.182Z,10.70
2023-04-17T10:04:01.623Z,10.23
2023-04-17T10:06:04.235Z,10.53
2023-04-17T10:08:07.198Z,10.10
2023-04-17T10:10:10.989Z,11.10
2023-04-17T10:12:15.118Z,11.10
2023-04-17T10:14:25.386Z,11.23
2023-04-17T10:16:47.269Z,10.67
2023-04-17T10:19:28.916Z,9.77
2023-04-17T10:21:31.289Z,9.70
2023-04-17T10:23:34.713Z,10.10
2023-04-17T10:25:36.936Z,10.17
2023-04-17T10:27:40.095Z,9.70
2023-04-17T10:30:02.491Z,9.60
2023-04-17T10:32:11.681Z,10.20
2023-04-17T10:34:41.007Z,9.20
2023-04-17T10:36:44.736Z,11.20
2023-04-17T10:38:47.371Z,9.77
2023-04-17T10:40:50.829Z,10.23
2023-04-17T10:43:17.262Z,10.10
2023-04-17T10:45:19.684Z,9.17
2023-04-17T10:47:22.661Z,8.77
2023-04-17T10:49:25.043Z,8.57
2023-04-17T10:51:27.849Z,8.90
2023-04-17T10:53:44.180Z,8.13
2023-04-17T10:55:50.608Z,8.87
2023-04-17T10:58:04.970Z,8.80
2023-04-17T11:00:14.128Z,8.77
2023-04-17T11:02:16.608Z,9.87
2023-04-17T11:04:23.876Z,9.83
2023-04-17T11:06:31.342Z,8.70
2023-04-17T11:08:33.631Z,8.70
2023-04-17T11:10:37.344Z,9.27
2023-04-17T11:12:39.531Z,8.40
2023-04-17T11:14:43.140Z,8.63
2023-04-17T11:16:48.869Z,8.60
2023-04-17T11:18:52.164Z,8.73
2023-04-17T11:20:54.286Z,10.27
2023-04-17T11:22:58.098Z,8.60
2023-04-17T11:25:00.261Z,8.20
2023-04-17T11:27:03.648Z,7.90
2023-04-17T11:29:16.844Z,9.03
2023-04-17T11:31:21.003Z,9.07
2023-04-17T11:33:23.916Z,9.07
2023-04-17T11:35:37.172Z,8.57
2023-04-17T11:38:17.702Z,8.77
2023-04-17T11:40:23.789Z,9.20
2023-04-17T11:42:28.359Z,9.00
2023-04-17T11:44:30.739Z,9.10
2023-04-17T11:46:32.954Z,8.97
2023-04-17T11:48:35.271Z,8.77
2023-04-17T11:50:37.557Z,8.83
2023-04-17T11:52:39.833Z,10.23
2023-04-17T11:54:42.081Z,9.47
2023-04-17T11:57:01.675Z,9.40
2023-04-17T11:59:05.294Z,10.77
2023-04-17T12:01:07.529Z,9.40
2023-04-17T12:03:35.114Z,10.80
2023-04-17T12:05:38.042Z,10.30
2023-04-17T12:07:40.414Z,9.40
2023-04-17T12:09:42.719Z,11.07
2023-04-17T12:11:44.867Z,8.83
2023-04-17T12:13:47.136Z,9.33
2023-04-17T12:15:49.794Z,9.30
2023-04-17T12:17:52.002Z,9.40
2023-04-17T12:19:54.219Z,9.57
2023-04-17T12:21:56.674Z,8.90
2023-04-17T12:23:58.948Z,8.50
2023-04-17T12:26:01.290Z,7.90
2023-04-17T12:28:05.029Z,7.80
2023-04-17T12:30:07.867Z,10.27
2023-04-17T12:32:10.817Z,8.77
2023-04-17T12:34:13.390Z,12.10
2023-04-17T12:36:15.808Z,9.13
2023-04-17T12:38:18.152Z,9.60
2023-04-17T12:40:24.471Z,8.60
2023-04-17T12:42:29.534Z,8.63
2023-04-17T12:44:33.609Z,9.53
2023-04-17T12:46:36.329Z,8.70
2023-04-17T12:48:38.522Z,10.03
2023-04-17T12:50:42.709Z,8.40
2023-04-17T12:52:44.909Z,8.60
2023-04-17T12:54:47.039Z,8.90
2023-04-17T12:56:49.423Z,8.70
2023-04-17T12:58:51.698Z,9.33
2023-04-17T13:00:54.444Z,8.87
2023-04-17T13:02:57.254Z,9.83
2023-04-17T13:04:59.625Z,9.50
2023-04-17T13:07:01.968Z,9.83
2023-04-17T13:09:04.885Z,9.50
2023-04-17T13:11:07.447Z,9.07
2023-04-17T13:13:09.960Z,9.27
2023-04-17T13:15:13.569Z,8.83
2023-04-17T13:17:17.320Z,9.80
2023-04-17T13:19:20.276Z,8.77
2023-04-17T13:21:22.510Z,9.23
2023-04-17T13:23:24.719Z,9.40
2023-04-17T13:25:26.937Z,10.17
2023-04-17T13:27:29.085Z,9.73
2023-04-17T13:29:31.396Z,9.07
2023-04-17T13:31:33.628Z,8.63
2023-04-17T13:33:35.853Z,9.90
2023-04-17T13:35:38.102Z,9.10
2023-04-17T13:37:41.703Z,10.13
2023-04-17T13:39:43.976Z,9.20
2023-04-17T13:41:46.427Z,10.00
2023-04-17T13:43:48.603Z,9.07
2023-04-17T13:45:52.696Z,9.37
2023-04-17T13:47:56.601Z,8.60
2023-04-17T13:49:58.824Z,8.67
2023-04-17T13:52:00.973Z,9.30
2023-04-17T13:54:03.204Z,10.53
2023-04-17T13:56:05.768Z,8.93
2023-04-17T13:58:07.866Z,9.37
2023-04-17T14:00:13.786Z,8.50
2023-04-17T14:02:16.055Z,8.73
2023-04-17T14:04:18.601Z,8.83
2023-04-17T14:06:21.002Z,8.80
2023-04-17T14:08:23.203Z,8.50
2023-04-17T14:10:25.641Z,9.20
2023-04-17T14:12:28.033Z,8.80
2023-04-17T14:14:30.252Z,8.67
2023-04-17T14:16:32.565Z,8.77
2023-04-17T14:18:34.842Z,8.67
2023-04-17T14:20:37.093Z,8.83
2023-04-17T14:22:39.292Z,7.90
2023-04-17T14:24:41.498Z,9.20
2023-04-17T14:26:43.700Z,8.33
2023-04-17T14:28:45.933Z,8.90
2023-04-17T14:30:48.595Z,8.57
2023-04-17T14:32:52.767Z,8.07
2023-04-17T14:34:55.581Z,8.43
2023-04-17T14:36:58.356Z,8.10
2023-04-17T14:39:00.558Z,7.90
2023-04-17T14:41:02.757Z,8.20
2023-04-17T14:43:05.099Z,7.97
2023-04-17T14:45:08.106Z,7.13
2023-04-17T14:47:11.146Z,6.60
2023-04-17T14:49:13.568Z,8.23
2023-04-17T14:51:16.973Z,6.93
2023-04-17T14:53:21.424Z,6.90
2023-04-17T14:55:24.417Z,7.60
2023-04-17T14:57:26.638Z,7.60
2023-04-17T14:59:29.016Z,8.73
2023-04-17T15:01:31.405Z,6.90
2023-04-17T15:03:33.925Z,7.87
2023-04-17T15:05:36.308Z,7.37
2023-04-17T15:07:38.547Z,7.83
2023-04-17T15:09:40.804Z,7.20
2023-04-17T15:11:43.052Z,7.10
2023-04-17T15:13:45.170Z,6.93
2023-04-17T15:15:47.486Z,7.27
2023-04-17T15:17:49.745Z,7.47
2023-04-17T15:19:51.935Z,7.43
2023-04-17T15:21:54.133Z,7.57
2023-04-17T15:23:56.262Z,6.83
2023-04-17T15:25:58.626Z,6.90
2023-04-17T15:28:01.115Z,7.93
2023-04-17T15:30:06.647Z,7.93
2023-04-17T15:32:08.867Z,7.40
2023-04-17T15:34:13.502Z,8.00
2023-04-17T15:36:15.841Z,7.93
2023-04-17T15:38:18.091Z,7.60
2023-04-17T15:40:20.265Z,7.03
2023-04-17T15:42:22.800Z,8.73
2023-04-17T15:44:25.025Z,8.70
2023-04-17T15:46:27.302Z,10.90
2023-04-17T15:48:29.921Z,9.77
2023-04-17T15:50:32.201Z,9.70
2023-04-17T15:52:34.719Z,10.70
2023-04-17T15:54:36.888Z,12.27
2023-04-17T15:56:39.620Z,11.07
2023-04-17T15:58:42.526Z,11.80
2023-04-17T16:00:44.668Z,11.30
2023-04-17T16:02:47.962Z,11.93
2023-04-17T16:04:50.305Z,13.40
2023-04-17T16:06:52.536Z,11.20
2023-04-17T16:08:54.724Z,12.03
2023-04-17T16:10:57.009Z,13.00
2023-04-17T16:12:59.201Z,11.00
2023-04-17T16:15:01.568Z,11.63
2023-04-17T16:17:04.582Z,10.93
2023-04-17T16:19:07.519Z,11.97
2023-04-17T16:21:12.620Z,12.37
2023-04-17T16:23:14.963Z,12.47
2023-04-17T16:25:18.196Z,11.80
2023-04-17T16:27:21.851Z,12.80
2023-04-17T16:29:24.949Z,13.53
2023-04-17T16:31:28.109Z,13.33
2023-04-17T16:33:30.396Z,11.57
2023-04-17T16:35:32.642Z,12.50
2023-04-17T16:37:34.793Z,13.87
2023-04-17T16:39:36.934Z,14.13
2023-04-17T16:41:39.140Z,14.97
2023-04-17T16:43:44.304Z,14.20
2023-04-17T16:45:46.411Z,14.23
2023-04-17T16:47:48.605Z,15.53
2023-04-17T16:49:50.931Z,16.10
2023-04-17T16:51:53.214Z,15.73
2023-04-17T16:53:55.530Z,15.30
2023-04-17T16:55:57.725Z,16.17
2023-04-17T16:58:00.696Z,14.87
2023-04-17T17:00:03.487Z,16.43
2023-04-17T17:02:06.064Z,16.43
2023-04-17T17:04:08.453Z,15.20
2023-04-17T17:06:10.877Z,15.70
2023-04-17T17:08:14.407Z,17.60
2023-04-17T17:10:16.711Z,17.33
2023-04-17T17:12:18.954Z,16.73
2023-04-17T17:14:21.243Z,17.93
2023-04-17T17:16:23.461Z,15.50
2023-04-17T17:18:25.782Z,17.10
2023-04-17T17:20:28.099Z,14.93
2023-04-17T17:22:30.261Z,14.93
2023-04-17T17:24:32.542Z,15.60
2023-04-17T17:26:45.443Z,15.30
2023-04-17T17:28:51.255Z,14.97
2023-04-17T17:31:07.841Z,15.40
2023-04-17T17:33:10.087Z,14.57
2023-04-17T17:35:12.280Z,14.20
2023-04-17T17:37:14.477Z,15.17
2023-04-17T17:39:16.914Z,15.77
2023-04-17T17:41:19.164Z,14.77
2023-04-17T17:43:21.559Z,14.00
2023-04-17T17:45:23.674Z,15.23
2023-04-17T17:47:26.034Z,15.90
2023-04-17T17:49:28.425Z,12.17
2023-04-17T17:51:31.296Z,13.67
2023-04-17T17:53:33.494Z,14.20
2023-04-17T17:55:38.029Z,14.20
2023-04-17T17:57:48.794Z,14.03
2023-04-17T17:59:52.688Z,13.60
2023-04-17T18:01:55.607Z,13.30
2023-04-17T18:03:58.073Z,14.13
2023-04-17T18:06:00.634Z,15.17
2023-04-17T18:08:02.790Z,13.63
2023-04-17T18:10:05.776Z,15.40
2023-04-17T18:12:08.047Z,15.77
2023-04-17T18:14:10.369Z,13.30
2023-04-17T18:16:12.761Z,16.00
2023-04-17T18:18:14.962Z,15.80
2023-04-17T18:20:17.298Z,14.70
2023-04-17T18:22:21.442Z,16.53
2023-04-17T18:24:23.749Z,16.00
2023-04-17T18:26:26.095Z,16.20
2023-04-17T18:28:28.736Z,15.93
2023-04-17T18:30:31.095Z,17.40
2023-04-17T18:32:33.492Z,18.90
2023-04-17T18:34:35.688Z,16.00
2023-04-17T18:36:37.984Z,17.37
2023-04-17T18:38:40.237Z,16.67
2023-04-17T18:40:42.509Z,16.70
2023-04-17T18:42:44.613Z,16.77
2023-04-17T18:44:47.133Z,17.20
2023-04-17T18:46:49.450Z,18.40
2023-04-17T18:48:51.751Z,17.90
2023-04-17T18:50:53.972Z,18.67
2023-04-17T18:52:56.394Z,20.63
2023-04-17T18:54:58.694Z,18.57
2023-04-17T18:57:01.888Z,18.63
2023-04-17T18:59:04.794Z,20.03
2023-04-17T19:01:08.790Z,18.97
2023-04-17T19:03:11.179Z,18.50
2023-04-17T19:05:13.772Z,20.53
2023-04-17T19:07:15.955Z,19.93
2023-04-17T19:09:18.176Z,20.30
2023-04-17T19:11:21.077Z,19.23
2023-04-17T19:13:23.299Z,20.20
2023-04-17T19:15:25.842Z,22.43
2023-04-17T19:17:28.085Z,19.87
2023-04-17T19:19:30.248Z,22.20
2023-04-17T19:21:32.872Z,21.40
2023-04-17T19:23:37.158Z,22.00
2023-04-17T19:25:41.601Z,21.83
2023-04-17T19:27:44.976Z,20.13
2023-04-17T19:29:47.655Z,21.90
2023-04-17T19:31:50.206Z,21.40
2023-04-17T19:33:56.092Z,20.97
2023-04-17T19:35:58.743Z,19.00
2023-04-17T19:38:00.995Z,21.70
2023-04-17T19:40:08.681Z,21.40
2023-04-17T19:42:16.707Z,19.77
2023-04-17T19:44:19.154Z,20.07
2023-04-17T19:46:23.005Z,19.47
2023-04-17T19:48:25.828Z,20.17
2023-04-17T19:50:29.505Z,19.00
2023-04-17T19:52:31.664Z,18.40
2023-04-17T19:54:33.930Z,20.47
2023-04-17T19:56:36.086Z,18.97
2023-04-17T19:58:38.623Z,18.20
2023-04-17T20:00:41.052Z,16.70
2023-04-17T20:02:43.686Z,17.70
2023-04-17T20:04:45.977Z,16.80
2023-04-17T20:06:48.218Z,18.03
2023-04-17T20:08:50.442Z,17.80
2023-04-17T20:10:52.740Z,17.07
2023-04-17T20:12:54.935Z,17.30
2023-04-17T20:14:57.087Z,16.90
2023-04-17T20:17:00.432Z,18.27
2023-04-17T20:19:02.781Z,16.00
2023-04-17T20:21:06.414Z,17.50
2023-04-17T20:23:08.819Z,16.43
2023-04-17T20:25:11.010Z,17.43
2023-04-17T20:27:13.148Z,16.80
2023-04-17T20:29:15.583Z,16.10
2023-04-17T20:31:17.934Z,15.33
2023-04-17T20:33:20.372Z,14.83
2023-04-17T20:35:24.552Z,14.27
2023-04-17T20:37:26.777Z,13.17
2023-04-17T20:39:29.635Z,12.50
2023-04-17T20:41:31.864Z,12.03
2023-04-17T20:43:34.049Z,12.40
2023-04-17T20:45:36.220Z,12.30
2023-04-17T20:47:43.542Z,13.60
2023-04-17T20:49:57.425Z,11.83
2023-04-17T20:51:59.586Z,11.40
2023-04-17T20:54:01.807Z,12.23
2023-04-17T20:56:04.623Z,12.03
2023-04-17T20:58:06.942Z,11.43
2023-04-17T21:00:09.685Z,12.03
2023-04-17T21:02:11.955Z,12.13
2023-04-17T21:04:14.325Z,11.70
2023-04-17T21:06:17.784Z,10.43
2023-04-17T21:08:19.993Z,11.33
2023-04-17T21:10:22.322Z,11.80
2023-04-17T21:12:24.509Z,11.47
2023-04-17T21:14:28.062Z,12.87
2023-04-17T21:16:31.244Z,11.90
2023-04-17T21:18:33.494Z,12.03
2023-04-17T21:20:35.988Z,11.97
2023-04-17T21:22:38.084Z,11.77
2023-04-17T21:24:40.305Z,12.90
2023-04-17T21:26:42.526Z,11.13
2023-04-17T21:28:44.710Z,12.83
2023-04-17T21:30:47.315Z,13.13
2023-04-17T21:32:49.432Z,11.80
2023-04-17T21:34:51.665Z,13.17
2023-04-17T21:36:54.423Z,12.90
2023-04-17T21:38:56.698Z,14.57
2023-04-17T21:40:58.889Z,11.53
2023-04-17T21:43:01.603Z,11.90
2023-04-17T21:45:04.118Z,12.70
2023-04-17T21:47:06.385Z,13.70
2023-04-17T21:49:08.815Z,13.20
2023-04-17T21:51:11.072Z,12.90
2023-04-17T21:53:13.252Z,13.50
2023-04-17T21:55:15.464Z,14.10
2023-04-17T21:57:17.770Z,15.23
2023-04-17T21:59:20.056Z,13.40
2023-04-17T22:01:22.308Z,13.20
2023-04-17T22:03:24.679Z,14.20
2023-04-17T22:05:26.999Z,14.63
2023-04-17T22:07:29.212Z,13.50
2023-04-17T22:09:31.360Z,13.50
2023-04-17T22:11:33.653Z,13.90
2023-04-17T22:13:36.227Z,12.90
2023-04-17T22:15:38.396Z,12.40
2023-04-17T22:17:41.162Z,12.30
2023-04-17T22:19:43.423Z,12.77
2023-04-17T22:21:45.584Z,12.03
2023-04-17T22:23:47.733Z,12.70
2023-04-17T22:25:49.887Z,11.93
2023-04-17T22:27:52.263Z,13.20
2023-04-17T22:29:54.455Z,11.63
2023-04-17T22:31:56.591Z,12.03
2023-04-17T22:33:58.718Z,12.70
2023-04-17T22:36:00.751Z,12.13
2023-04-17T22:38:02.761Z,12.30
2023-04-17T22:40:05.259Z,12.87
2023-04-17T22:42:07.336Z,12.40
2023-04-17T22:44:09.417Z,11.67
2023-04-17T22:46:11.684Z,11.80
2023-04-17T22:48:14.309Z,12.53
2023-04-17T22:50:17.766Z,12.40
2023-04-17T22:52:19.813Z,11.77
2023-04-17T22:54:23.254Z,13.50
2023-04-17T22:56:25.472Z,13.03
2023-04-17T22:58:27.524Z,12.43
2023-04-17T23:00:30.540Z,12.30
2023-04-17T23:02:32.671Z,12.07
2023-04-17T23:04:34.874Z,11.50
2023-04-17T23:06:36.869Z,11.67
2023-04-17T23:08:38.963Z,12.80
2023-04-17T23:10:40.908Z,10.10
2023-04-17T23:12:42.976Z,11.07
2023-04-17T23:14:46.045Z,11.00
2023-04-17T23:16:48.081Z,11.47
2023-04-17T23:18:50.116Z,11.30
2023-04-17T23:20:52.157Z,10.30
2023-04-17T23:22:54.173Z,10.90
2023-04-17T23:24:56.895Z,10.77
2023-04-17T23:26:58.928Z,10.70
2023-04-17T23:29:00.933Z,12.03
2023-04-17T23:31:06.544Z,13.20
2023-04-17T23:33:09.711Z,12.07
2023-04-17T23:35:11.801Z,11.30
2023-04-17T23:37:13.972Z,13.43
2023-04-17T23:39:15.940Z,12.60
2023-04-17T23:41:17.915Z,12.67
2023-04-17T23:43:19.913Z,12.80
2023-04-17T23:45:21.940Z,14.90
2023-04-17T23:47:24.305Z,12.83
2023-04-17T23:49:26.261Z,13.03
2023-04-17T23:51:28.413Z,12.43
2023-04-17T23:53:30.434Z,13.57
2023-04-17T23:55:32.475Z,13.80
2023-04-17T23:57:35.509Z,12.67
2023-04-17T23:59:37.586Z,14.60
